createdAt,value
2024-02-28T00:00:42.039Z,7.10
2024-02-28T00:03:08.729Z,7.20
2024-02-28T00:05:35.317Z,7.88
2024-02-28T00:08:01.835Z,6.78
2024-02-28T00:10:28.452Z,6.63
2024-02-28T00:12:55.057Z,6.93
2024-02-28T00:15:21.778Z,7.30
2024-02-28T00:17:48.383Z,6.17
2024-02-28T00:20:15.329Z,6.55
2024-02-28T00:22:43.647Z,6.68
2024-02-28T00:25:12.275Z,7.72
2024-02-28T00:27:38.938Z,7.13
2024-02-28T00:30:07.900Z,7.00
2024-02-28T00:32:34.771Z,6.97
2024-02-28T00:35:01.349Z,6.97
2024-02-28T00:37:28.095Z,7.72
2024-02-28T00:39:54.886Z,8.15
2024-02-28T00:42:21.563Z,7.60
2024-02-28T00:44:48.106Z,7.28
2024-02-28T00:47:14.698Z,6.68
2024-02-28T00:49:41.317Z,7.45
2024-02-28T00:52:07.920Z,6.93
2024-02-28T00:54:34.599Z,7.70
2024-02-28T00:57:01.209Z,7.70
2024-02-28T00:59:27.769Z,7.28
2024-02-28T01:01:54.394Z,7.05
2024-02-28T01:04:21.077Z,7.65
2024-02-28T01:06:47.800Z,7.53
2024-02-28T01:09:14.521Z,8.27
2024-02-28T01:11:41.224Z,8.05
2024-02-28T01:14:07.848Z,8.50
2024-02-28T01:16:34.664Z,6.97
2024-02-28T01:19:01.372Z,7.70
2024-02-28T01:21:28.047Z,6.90
2024-02-28T01:23:54.635Z,7.28
2024-02-28T01:26:23.308Z,8.05
2024-02-28T01:28:50.577Z,7.72
2024-02-28T01:31:17.273Z,8.60
2024-02-28T01:33:43.965Z,8.20
2024-02-28T01:36:12.768Z,8.35
2024-02-28T01:38:39.322Z,8.30
2024-02-28T01:41:06.610Z,8.63
2024-02-28T01:43:33.733Z,9.40
2024-02-28T01:46:04.572Z,9.13
2024-02-28T01:48:31.402Z,8.23
2024-02-28T01:50:58.420Z,9.07
2024-02-28T01:53:25.133Z,9.18
2024-02-28T01:55:53.059Z,9.70
2024-02-28T01:58:20.742Z,8.65
2024-02-28T02:00:48.306Z,9.05
2024-02-28T02:03:15.014Z,7.40
2024-02-28T02:05:42.965Z,8.65
2024-02-28T02:08:10.306Z,9.03
2024-02-28T02:10:36.882Z,5.75
2024-02-28T02:13:07.454Z,9.40
2024-02-28T02:15:34.190Z,9.93
2024-02-28T02:18:00.930Z,10.25
2024-02-28T02:20:31.126Z,9.10
2024-02-28T02:22:58.047Z,8.70
2024-02-28T02:25:24.626Z,8.07
2024-02-28T02:27:51.255Z,9.10
2024-02-28T02:30:18.136Z,9.85
2024-02-28T02:32:44.783Z,8.47
2024-02-28T02:35:11.433Z,10.07
2024-02-28T02:37:38.162Z,7.85
2024-02-28T02:40:05.109Z,8.73
2024-02-28T02:42:31.673Z,8.52
2024-02-28T02:44:58.332Z,9.90
2024-02-28T02:47:24.915Z,10.23
2024-02-28T02:49:51.481Z,8.85
2024-02-28T02:52:18.071Z,8.35
2024-02-28T02:54:44.704Z,8.23
2024-02-28T02:57:11.290Z,9.15
2024-02-28T02:59:37.877Z,9.48
2024-02-28T03:02:05.277Z,9.77
2024-02-28T03:04:31.880Z,7.25
2024-02-28T03:06:58.981Z,9.98
2024-02-28T03:09:25.941Z,7.95
2024-02-28T03:11:52.535Z,7.38
2024-02-28T03:14:20.114Z,9.82
2024-02-28T03:16:46.866Z,8.43
2024-02-28T03:19:13.466Z,9.00
2024-02-28T03:21:40.042Z,10.13
2024-02-28T03:24:06.880Z,9.38
2024-02-28T03:26:33.679Z,9.02
2024-02-28T03:29:00.754Z,9.80
2024-02-28T03:31:27.821Z,10.07
2024-02-28T03:33:54.449Z,9.95
2024-02-28T03:36:21.116Z,9.95
2024-02-28T03:38:47.712Z,10.43
2024-02-28T03:41:14.361Z,10.30
2024-02-28T03:43:40.919Z,10.52
2024-02-28T03:46:07.571Z,9.87
2024-02-28T03:48:34.407Z,10.52
2024-02-28T03:51:00.952Z,11.07
2024-02-28T03:53:27.734Z,8.88
2024-02-28T03:55:54.434Z,10.98
2024-02-28T03:58:21.018Z,10.77
2024-02-28T04:00:48.085Z,9.80
2024-02-28T04:03:18.066Z,10.27
2024-02-28T04:05:44.657Z,10.95
2024-02-28T04:08:11.552Z,10.70
2024-02-28T04:10:38.152Z,10.77
2024-02-28T04:13:04.904Z,9.13
2024-02-28T04:15:32.242Z,10.40
2024-02-28T04:17:58.965Z,10.60
2024-02-28T04:20:25.620Z,10.10
2024-02-28T04:22:52.169Z,10.60
2024-02-28T04:25:18.764Z,10.35
2024-02-28T04:27:45.354Z,9.90
2024-02-28T04:30:12.099Z,9.80
2024-02-28T04:32:39.582Z,10.10
2024-02-28T04:35:07.689Z,10.07
2024-02-28T04:37:35.889Z,9.23
2024-02-28T04:40:03.138Z,10.55
2024-02-28T04:42:29.763Z,10.27
2024-02-28T04:44:56.414Z,10.45
2024-02-28T04:47:29.763Z,9.63
2024-02-28T04:50:00.333Z,11.00
2024-02-28T04:52:28.381Z,10.35
2024-02-28T04:54:55.207Z,9.35
2024-02-28T04:57:21.902Z,11.15
2024-02-28T04:59:48.511Z,8.52
2024-02-28T05:02:15.281Z,9.55
2024-02-28T05:04:41.900Z,9.75
2024-02-28T05:07:08.606Z,10.35
2024-02-28T05:09:35.614Z,10.25
2024-02-28T05:12:03.087Z,11.60
2024-02-28T05:14:29.657Z,10.98
2024-02-28T05:16:56.645Z,9.98
2024-02-28T05:19:23.228Z,10.48
2024-02-28T05:21:50.243Z,10.98
2024-02-28T05:24:16.912Z,10.23
2024-02-28T05:26:43.565Z,10.93
2024-02-28T05:29:10.159Z,11.80
2024-02-28T05:31:39.322Z,10.45
2024-02-28T05:34:06.241Z,10.65
2024-02-28T05:36:32.909Z,11.23
2024-02-28T05:39:02.308Z,10.60
2024-02-28T05:41:29.732Z,10.52
2024-02-28T05:43:56.357Z,11.05
2024-02-28T05:46:23.492Z,9.15
2024-02-28T05:48:50.290Z,11.70
2024-02-28T05:51:17.217Z,10.95
2024-02-28T05:53:44.567Z,10.40
2024-02-28T05:56:14.808Z,10.75
2024-02-28T05:58:42.571Z,11.82
2024-02-28T06:01:10.359Z,11.02
2024-02-28T06:03:38.047Z,10.90
2024-02-28T06:06:07.979Z,10.77
2024-02-28T06:08:35.691Z,11.30
2024-02-28T06:11:02.887Z,11.55
2024-02-28T06:13:30.309Z,12.20
2024-02-28T06:15:57.636Z,11.30
2024-02-28T06:18:27.926Z,13.38
2024-02-28T06:20:56.024Z,11.35
2024-02-28T06:23:28.298Z,11.32
2024-02-28T06:25:56.070Z,11.60
2024-02-28T06:28:22.652Z,10.20
2024-02-28T06:30:49.270Z,10.55
2024-02-28T06:33:15.990Z,10.35
2024-02-28T06:35:42.641Z,12.05
2024-02-28T06:38:09.189Z,11.27
2024-02-28T06:40:35.911Z,9.10
2024-02-28T06:43:02.899Z,11.65
2024-02-28T06:45:29.549Z,12.45
2024-02-28T06:47:56.206Z,13.35
2024-02-28T06:50:22.922Z,11.57
2024-02-28T06:52:49.526Z,12.55
2024-02-28T06:55:16.275Z,13.35
2024-02-28T06:57:43.649Z,12.30
2024-02-28T07:00:17.219Z,12.95
2024-02-28T07:02:44.228Z,13.15
2024-02-28T07:05:11.641Z,12.63
2024-02-28T07:07:38.228Z,11.07
2024-02-28T07:10:05.855Z,12.13
2024-02-28T07:12:33.187Z,12.57
2024-02-28T07:15:00.068Z,10.95
2024-02-28T07:17:26.819Z,12.52
2024-02-28T07:19:53.428Z,11.80
2024-02-28T07:22:20.037Z,11.57
2024-02-28T07:24:46.733Z,12.13
2024-02-28T07:27:13.374Z,11.57
2024-02-28T07:29:40.023Z,12.85
2024-02-28T07:32:06.868Z,12.65
2024-02-28T07:34:34.957Z,12.00
2024-02-28T07:37:01.666Z,11.80
2024-02-28T07:39:28.450Z,11.93
2024-02-28T07:41:56.525Z,10.43
2024-02-28T07:44:23.624Z,12.43
2024-02-28T07:46:52.271Z,13.75
2024-02-28T07:49:19.655Z,10.07
2024-02-28T07:51:46.834Z,15.15
2024-02-28T07:54:13.715Z,10.35
2024-02-28T07:56:40.717Z,13.38
2024-02-28T07:59:07.436Z,12.57
2024-02-28T08:01:35.445Z,13.27
2024-02-28T08:04:03.387Z,12.82
2024-02-28T08:06:30.509Z,13.00
2024-02-28T08:08:57.185Z,11.80
2024-02-28T08:11:24.732Z,12.68
2024-02-28T08:13:51.939Z,13.02
2024-02-28T08:16:18.524Z,13.27
2024-02-28T08:18:45.573Z,12.18
2024-02-28T08:21:12.381Z,10.77
2024-02-28T08:23:39.511Z,13.55
2024-02-28T08:26:06.287Z,14.23
2024-02-28T08:28:33.001Z,13.68
2024-02-28T08:31:00.192Z,12.57
2024-02-28T08:33:27.173Z,9.43
2024-02-28T08:35:55.055Z,12.32
2024-02-28T08:38:21.799Z,11.30
2024-02-28T08:40:48.379Z,11.75
2024-02-28T08:43:14.949Z,13.70
2024-02-28T08:45:41.607Z,13.63
2024-02-28T08:48:08.904Z,13.25
2024-02-28T08:50:35.900Z,12.90
2024-02-28T08:53:04.060Z,12.45
2024-02-28T08:55:31.304Z,12.82
2024-02-28T08:57:58.091Z,13.38
2024-02-28T09:00:24.920Z,11.45
2024-02-28T09:02:51.562Z,14.30
2024-02-28T09:05:18.212Z,12.10
2024-02-28T09:07:44.926Z,14.40
2024-02-28T09:10:12.444Z,12.07
2024-02-28T09:12:39.440Z,13.98
2024-02-28T09:15:06.625Z,9.23
2024-02-28T09:17:33.339Z,9.88
2024-02-28T09:20:02.339Z,11.85
2024-02-28T09:22:29.131Z,12.88
2024-02-28T09:24:55.995Z,11.80
2024-02-28T09:27:22.898Z,12.00
2024-02-28T09:29:49.560Z,10.77
2024-02-28T09:32:16.278Z,12.00
2024-02-28T09:34:43.105Z,10.80
2024-02-28T09:37:09.884Z,8.05
2024-02-28T09:39:40.571Z,12.13
2024-02-28T09:42:11.359Z,11.57
2024-02-28T09:44:38.481Z,10.23
2024-02-28T09:47:05.436Z,9.85
2024-02-28T09:49:32.943Z,7.18
2024-02-28T09:52:00.403Z,8.38
2024-02-28T09:54:27.427Z,9.63
2024-02-28T09:56:54.688Z,10.63
2024-02-28T09:59:26.706Z,11.18
2024-02-28T10:01:59.358Z,11.55
2024-02-28T10:04:28.755Z,9.23
2024-02-28T10:06:55.414Z,8.93
2024-02-28T10:09:22.110Z,8.90
2024-02-28T10:11:48.831Z,8.88
2024-02-28T10:14:22.130Z,8.45
2024-02-28T10:16:48.723Z,10.30
2024-02-28T10:19:15.483Z,8.05
2024-02-28T10:21:43.125Z,7.33
2024-02-28T10:24:14.196Z,7.38
2024-02-28T10:26:56.377Z,7.75
2024-02-28T10:29:26.702Z,7.72
2024-02-28T10:31:54.802Z,7.38
2024-02-28T10:34:21.448Z,7.27
2024-02-28T10:36:48.780Z,8.13
2024-02-28T10:39:15.916Z,7.40
2024-02-28T10:41:44.542Z,7.55
2024-02-28T10:44:13.972Z,4.80
2024-02-28T10:46:41.180Z,6.93
2024-02-28T10:49:08.404Z,7.03
2024-02-28T10:51:38.651Z,7.20
2024-02-28T10:54:15.306Z,7.60
2024-02-28T10:56:44.856Z,7.15
2024-02-28T10:59:13.849Z,6.47
2024-02-28T11:01:43.952Z,6.30
2024-02-28T11:04:12.138Z,5.35
2024-02-28T11:06:49.872Z,5.55
2024-02-28T11:09:23.740Z,5.85
2024-02-28T11:11:52.331Z,4.97
2024-02-28T11:14:23.313Z,6.32
2024-02-28T11:17:00.907Z,6.32
2024-02-28T11:19:30.428Z,6.22
2024-02-28T11:21:58.596Z,7.07
2024-02-28T11:24:26.675Z,5.43
2024-02-28T11:26:56.524Z,6.88
2024-02-28T11:29:28.454Z,7.13
2024-02-28T11:31:55.124Z,6.85
2024-02-28T11:34:22.247Z,7.38
2024-02-28T11:36:50.549Z,7.47
2024-02-28T11:39:18.527Z,8.07
2024-02-28T11:41:48.688Z,6.35
2024-02-28T11:44:17.577Z,7.25
2024-02-28T11:46:47.306Z,5.85
2024-02-28T11:49:14.299Z,6.43
2024-02-28T11:51:42.509Z,7.47
2024-02-28T11:54:11.960Z,7.18
2024-02-28T11:56:42.491Z,8.02
2024-02-28T11:59:12.439Z,8.32
2024-02-28T12:01:41.981Z,7.07
2024-02-28T12:04:09.320Z,8.98
2024-02-28T12:06:37.875Z,7.93
2024-02-28T12:09:05.751Z,8.55
2024-02-28T12:11:32.885Z,9.35
2024-02-28T12:14:00.965Z,7.53
2024-02-28T12:16:28.578Z,8.10
2024-02-28T12:18:55.459Z,8.45
2024-02-28T12:21:22.547Z,8.55
2024-02-28T12:23:51.519Z,8.45
2024-02-28T12:26:21.491Z,8.37
2024-02-28T12:28:48.010Z,8.50
2024-02-28T12:31:14.775Z,9.13
2024-02-28T12:33:41.722Z,9.23
2024-02-28T12:36:08.767Z,8.95
2024-02-28T12:38:35.431Z,10.00
2024-02-28T12:41:02.736Z,9.57
2024-02-28T12:43:32.019Z,6.65
2024-02-28T12:45:58.673Z,9.70
2024-02-28T12:48:25.433Z,8.77
2024-02-28T12:50:52.300Z,9.18
2024-02-28T12:53:18.979Z,8.45
2024-02-28T12:55:46.194Z,8.32
2024-02-28T12:58:12.901Z,8.98
2024-02-28T13:00:39.551Z,8.50
2024-02-28T13:03:07.164Z,8.27
2024-02-28T13:05:33.802Z,8.30
2024-02-28T13:08:00.443Z,8.73
2024-02-28T13:10:27.218Z,8.88
2024-02-28T13:12:54.035Z,7.88
2024-02-28T13:15:20.803Z,7.30
2024-02-28T13:17:50.767Z,6.75
2024-02-28T13:20:17.875Z,6.63
2024-02-28T13:22:44.689Z,6.38
2024-02-28T13:25:12.841Z,6.40
2024-02-28T13:27:39.434Z,6.33
2024-02-28T13:30:06.819Z,6.43
2024-02-28T13:32:33.670Z,7.53
2024-02-28T13:35:01.395Z,7.65
2024-02-28T13:37:28.094Z,6.95
2024-02-28T13:39:54.753Z,7.13
2024-02-28T13:42:21.484Z,7.55
2024-02-28T13:44:48.309Z,7.78
2024-02-28T13:47:15.382Z,6.70
2024-02-28T13:49:42.067Z,6.88
2024-02-28T13:52:09.150Z,7.70
2024-02-28T13:54:36.527Z,6.57
2024-02-28T13:57:05.044Z,6.63
2024-02-28T13:59:32.256Z,6.43
2024-02-28T14:02:01.132Z,5.25
2024-02-28T14:04:27.838Z,6.80
2024-02-28T14:06:54.500Z,7.00
2024-02-28T14:09:21.209Z,7.43
2024-02-28T14:11:48.049Z,7.47
2024-02-28T14:14:14.650Z,6.95
2024-02-28T14:16:41.219Z,6.70
2024-02-28T14:19:07.873Z,6.13
2024-02-28T14:21:34.758Z,6.30
2024-02-28T14:24:01.445Z,5.22
2024-02-28T14:26:28.309Z,5.90
2024-02-28T14:28:56.386Z,4.43
2024-02-28T14:31:25.134Z,5.97
2024-02-28T14:33:51.786Z,5.05
2024-02-28T14:36:18.506Z,6.18
2024-02-28T14:38:45.537Z,4.50
2024-02-28T14:41:12.955Z,5.47
2024-02-28T14:43:40.165Z,4.80
2024-02-28T14:46:08.407Z,4.75
2024-02-28T14:48:35.277Z,4.65
2024-02-28T14:51:03.518Z,4.00
2024-02-28T14:53:30.222Z,3.90
2024-02-28T14:55:56.852Z,3.65
2024-02-28T14:58:23.512Z,4.35
2024-02-28T15:00:50.551Z,4.45
2024-02-28T15:03:17.685Z,3.85
2024-02-28T15:05:45.351Z,3.77
2024-02-28T15:08:12.333Z,3.55
2024-02-28T15:10:38.949Z,3.47
2024-02-28T15:13:05.628Z,3.70
2024-02-28T15:15:32.387Z,3.55
2024-02-28T15:17:59.685Z,3.47
2024-02-28T15:20:26.483Z,3.83
2024-02-28T15:22:53.122Z,2.95
2024-02-28T15:25:19.739Z,3.50
2024-02-28T15:27:46.358Z,3.90
2024-02-28T15:30:13.584Z,3.43
2024-02-28T15:32:41.143Z,2.20
2024-02-28T15:35:11.759Z,2.03
2024-02-28T15:37:39.450Z,2.92
2024-02-28T15:40:07.809Z,2.60
2024-02-28T15:42:35.571Z,2.83
2024-02-28T15:45:02.965Z,2.28
2024-02-28T15:47:31.466Z,2.47
2024-02-28T15:50:00.160Z,4.03
2024-02-28T15:52:26.822Z,2.72
2024-02-28T15:54:53.400Z,2.37
2024-02-28T15:57:19.979Z,1.92
2024-02-28T15:59:46.631Z,2.22
2024-02-28T16:02:13.344Z,2.13
2024-02-28T16:04:40.013Z,1.90
2024-02-28T16:07:08.747Z,2.13
2024-02-28T16:09:35.458Z,2.22
2024-02-28T16:12:03.686Z,2.47
2024-02-28T16:14:30.283Z,2.20
2024-02-28T16:16:56.978Z,2.97
2024-02-28T16:19:27.305Z,2.13
2024-02-28T16:21:55.264Z,2.30
2024-02-28T16:24:22.352Z,2.33
2024-02-28T16:26:49.123Z,2.50
2024-02-28T16:29:15.964Z,2.35
2024-02-28T16:31:44.644Z,2.77
2024-02-28T16:34:11.276Z,2.42
2024-02-28T16:36:38.017Z,3.38
2024-02-28T16:39:04.791Z,2.60
2024-02-28T16:41:31.403Z,2.80
2024-02-28T16:43:58.743Z,3.50
2024-02-28T16:46:25.333Z,3.90
2024-02-28T16:48:52.009Z,3.55
2024-02-28T16:51:20.534Z,2.88
2024-02-28T16:53:47.311Z,3.25
2024-02-28T16:56:13.993Z,3.83
2024-02-28T16:58:44.004Z,3.30
2024-02-28T17:01:11.579Z,3.13
2024-02-28T17:03:38.454Z,3.00
2024-02-28T17:06:06.058Z,3.10
2024-02-28T17:08:33.993Z,3.53
2024-02-28T17:11:00.777Z,2.95
2024-02-28T17:13:27.745Z,3.63
2024-02-28T17:16:03.803Z,3.03
2024-02-28T17:18:31.658Z,3.45
2024-02-28T17:20:59.106Z,3.38
2024-02-28T17:23:26.667Z,3.25
2024-02-28T17:25:54.003Z,3.47
2024-02-28T17:28:20.748Z,3.80
2024-02-28T17:30:47.755Z,3.20
2024-02-28T17:33:14.555Z,3.20
2024-02-28T17:35:42.869Z,3.38
2024-02-28T17:38:09.582Z,2.88
2024-02-28T17:40:36.185Z,4.00
2024-02-28T17:43:02.952Z,3.40
2024-02-28T17:45:29.865Z,3.15
2024-02-28T17:47:57.198Z,3.20
2024-02-28T17:50:25.780Z,3.85
2024-02-28T17:52:52.547Z,3.55
2024-02-28T17:55:19.212Z,3.97
2024-02-28T17:57:47.354Z,4.03
2024-02-28T18:00:14.537Z,3.92
2024-02-28T18:02:42.540Z,3.95
2024-02-28T18:05:11.554Z,3.22
2024-02-28T18:07:43.191Z,3.85
2024-02-28T18:10:14.112Z,4.05
2024-02-28T18:12:40.949Z,3.70
2024-02-28T18:15:08.249Z,3.58
2024-02-28T18:17:35.608Z,4.37
2024-02-28T18:20:06.335Z,3.80
2024-02-28T18:22:33.083Z,3.85
2024-02-28T18:25:00.977Z,4.57
2024-02-28T18:27:28.168Z,4.95
2024-02-28T18:29:54.861Z,4.33
2024-02-28T18:32:21.557Z,3.67
2024-02-28T18:34:51.410Z,3.85
2024-02-28T18:37:19.701Z,4.50
2024-02-28T18:39:46.425Z,5.03
2024-02-28T18:42:13.165Z,4.13
2024-02-28T18:44:39.768Z,3.85
2024-02-28T18:47:06.924Z,4.88
2024-02-28T18:49:34.024Z,5.70
2024-02-28T18:52:01.520Z,5.07
2024-02-28T18:54:28.500Z,5.40
2024-02-28T18:56:55.658Z,5.15
2024-02-28T18:59:22.309Z,4.00
2024-02-28T19:01:51.068Z,4.25
2024-02-28T19:04:18.097Z,4.68
2024-02-28T19:06:48.899Z,4.50
2024-02-28T19:09:15.756Z,3.90
2024-02-28T19:11:43.033Z,4.15
2024-02-28T19:14:09.872Z,3.60
2024-02-28T19:16:36.484Z,4.15
2024-02-28T19:19:03.370Z,4.60
2024-02-28T19:21:30.198Z,4.50
2024-02-28T19:23:57.083Z,4.68
2024-02-28T19:26:24.766Z,4.22
2024-02-28T19:28:51.464Z,4.47
2024-02-28T19:31:18.205Z,4.03
2024-02-28T19:33:44.908Z,3.38
2024-02-28T19:36:11.667Z,4.20
2024-02-28T19:38:38.375Z,4.03
2024-02-28T19:41:05.191Z,4.68
2024-02-28T19:43:33.283Z,4.20
2024-02-28T19:46:01.099Z,4.68
2024-02-28T19:48:28.544Z,5.05
2024-02-28T19:50:55.167Z,5.97
2024-02-28T19:53:21.903Z,5.50
2024-02-28T19:55:48.846Z,4.63
2024-02-28T19:58:15.586Z,5.22
2024-02-28T20:00:42.289Z,5.13
2024-02-28T20:03:09.159Z,4.90
2024-02-28T20:05:36.256Z,5.25
2024-02-28T20:08:02.846Z,6.10
2024-02-28T20:10:31.152Z,4.88
2024-02-28T20:12:58.935Z,5.43
2024-02-28T20:15:27.248Z,5.78
2024-02-28T20:17:54.634Z,5.22
2024-02-28T20:20:21.729Z,5.72
2024-02-28T20:22:50.425Z,5.75
2024-02-28T20:25:17.114Z,6.00
2024-02-28T20:27:44.912Z,5.72
2024-02-28T20:30:11.943Z,5.28
2024-02-28T20:32:38.749Z,5.18
2024-02-28T20:35:06.555Z,5.45
2024-02-28T20:37:33.457Z,4.70
2024-02-28T20:40:00.132Z,4.97
2024-02-28T20:42:26.966Z,5.40
2024-02-28T20:44:53.572Z,6.25
2024-02-28T20:47:20.899Z,5.88
2024-02-28T20:49:47.538Z,4.18
2024-02-28T20:52:14.240Z,5.30
2024-02-28T20:54:41.004Z,4.82
2024-02-28T20:57:12.844Z,5.13
2024-02-28T20:59:43.879Z,4.75
2024-02-28T21:02:10.645Z,5.10
2024-02-28T21:04:38.577Z,4.25
2024-02-28T21:07:06.106Z,4.85
2024-02-28T21:09:33.194Z,5.20
2024-02-28T21:12:06.774Z,4.70
2024-02-28T21:14:33.512Z,5.03
2024-02-28T21:17:00.230Z,4.63
2024-02-28T21:19:27.325Z,4.70
2024-02-28T21:21:54.133Z,4.78
2024-02-28T21:24:20.917Z,5.15
2024-02-28T21:26:47.494Z,5.10
2024-02-28T21:29:14.143Z,5.43
2024-02-28T21:31:40.913Z,4.63
2024-02-28T21:34:07.793Z,4.60
2024-02-28T21:36:37.228Z,5.35
2024-02-28T21:39:09.712Z,4.80
2024-02-28T21:41:36.501Z,6.05
2024-02-28T21:44:03.145Z,5.97
2024-02-28T21:46:29.786Z,5.25
2024-02-28T21:49:02.837Z,5.30
2024-02-28T21:51:33.416Z,5.00
2024-02-28T21:54:00.836Z,4.68
2024-02-28T21:56:27.426Z,4.90
2024-02-28T21:58:54.045Z,5.45
2024-02-28T22:01:20.919Z,6.05
2024-02-28T22:03:48.439Z,5.65
2024-02-28T22:06:15.209Z,6.65
2024-02-28T22:08:41.991Z,5.63
2024-02-28T22:11:09.267Z,5.70
2024-02-28T22:13:36.463Z,6.40
2024-02-28T22:16:03.886Z,6.07
2024-02-28T22:18:30.829Z,6.97
2024-02-28T22:20:57.548Z,6.88
2024-02-28T22:23:24.156Z,5.70
2024-02-28T22:25:50.807Z,6.50
2024-02-28T22:28:17.486Z,6.88
2024-02-28T22:30:44.157Z,6.20
2024-02-28T22:33:10.789Z,6.32
2024-02-28T22:35:37.896Z,6.70
2024-02-28T22:38:04.631Z,6.95
2024-02-28T22:40:32.978Z,6.80
2024-02-28T22:42:59.806Z,8.00
2024-02-28T22:45:26.568Z,5.75
2024-02-28T22:47:53.288Z,7.97
2024-02-28T22:50:19.897Z,8.63
2024-02-28T22:52:46.440Z,7.90
2024-02-28T22:55:13.147Z,8.30
2024-02-28T22:57:39.863Z,8.82
2024-02-28T23:00:30.237Z,7.05
2024-02-28T23:03:07.486Z,7.80
2024-02-28T23:05:36.026Z,7.65
2024-02-28T23:08:03.666Z,8.00
2024-02-28T23:10:30.263Z,9.05
2024-02-28T23:12:57.608Z,8.23
2024-02-28T23:15:24.871Z,10.30
2024-02-28T23:17:56.986Z,8.35
2024-02-28T23:20:28.805Z,9.50
2024-02-28T23:22:56.082Z,9.20
2024-02-28T23:25:23.194Z,8.48
2024-02-28T23:27:51.567Z,8.82
2024-02-28T23:30:18.386Z,8.02
2024-02-28T23:32:45.035Z,8.40
2024-02-28T23:35:11.861Z,8.73
2024-02-28T23:37:39.726Z,8.32
2024-02-28T23:40:08.181Z,8.82
2024-02-28T23:42:36.141Z,8.95
2024-02-28T23:45:03.138Z,7.95
2024-02-28T23:47:29.925Z,8.60
2024-02-28T23:49:56.646Z,8.85
2024-02-28T23:52:23.546Z,10.25
2024-02-28T23:54:50.385Z,8.40
2024-02-28T23:57:17.034Z,8.32
2024-02-28T23:59:44.045Z,8.98
